Aviation Digital Data Service (ADDS)

Output produced by METARs form (1454 UTC 18 August 2019)
found at http://www.aviationweather.gov/metar/data/
 
METAR text: KGYI 181450Z 18016G20KT 10SM CLR 31/23 A2990
Conditions at: KGYI (SHERMAN/DENISON , TX, US) observed 1450 UTC 18 August 2019
Temperature: 31.0°C (88°F)
Dewpoint: 23.0°C (73°F) [RH = 63%]
Pressure (altimeter): 29.90 inches Hg (1012.6 mb)
Winds: from the S (180 degrees) at 18 MPH (16 knots; 8.2 m/s)
gusting to 23 MPH (20 knots; 10.3 m/s)
Visibility: 10 or more miles (16+ km)
Ceiling: at least 12,000 feet AGL
Clouds: sky clear below 12,000 feet AGL
Weather: no significant weather observed at this time